Burt Lake, Michigan
Current Conditions -  °F | °C
As of 1:54 PM on Friday 24 Oct 2014 (Local Time) from KPLN Reporting Station
Overcast Overcast  
Wind Chill: 54°   Ceiling: 1300
Heat Index: 54°   Visibility: 9mi
Dew Point: 48°   Wind: 8mph
Humidity: 80%   Direction: 240°WSW
Pressure: 29.96"   Gusts: NA
Location:  45.44°N, 84.71°W
Report Text: KPLN 241754Z AUTO 24007KT 9SM OVC013 12/09 A2996 RMK AO2 SLP150 T01220089 10122 20056 56016
Loading
Personal Weather Stations






























Interactive Weather Map
Tropical Storm Tracking
New forecast layout! Learn more

10-Day Weather Forecast

Advertisements
Track Severe Weather on mobile